createdAt,value
2023-04-20T00:01:13.265Z,6.00
2023-04-20T00:07:16.857Z,5.80
2023-04-20T00:13:19.028Z,5.90
2023-04-20T00:19:21.246Z,5.70
2023-04-20T00:25:23.463Z,5.60
2023-04-20T00:31:25.640Z,5.50
2023-04-20T00:37:28.765Z,5.60
2023-04-20T00:43:31.045Z,5.50
2023-04-20T00:49:33.196Z,5.40
2023-04-20T00:55:37.162Z,5.50
2023-04-20T01:01:39.361Z,5.50
2023-04-20T01:07:42.557Z,5.40
2023-04-20T01:13:44.738Z,5.40
2023-04-20T01:19:47.126Z,5.30
2023-04-20T01:25:49.226Z,5.10
2023-04-20T01:31:51.211Z,5.00
2023-04-20T01:37:53.959Z,4.90
2023-04-20T01:43:56.121Z,4.80
2023-04-20T01:49:58.676Z,4.90
2023-04-20T01:56:00.768Z,5.00
2023-04-20T02:02:02.815Z,4.90
2023-04-20T02:08:07.956Z,4.90
2023-04-20T02:14:09.900Z,4.90
2023-04-20T02:20:12.901Z,4.70
2023-04-20T02:26:15.002Z,4.60
2023-04-20T02:32:16.979Z,4.50
2023-04-20T02:38:19.006Z,4.60
2023-04-20T02:44:24.277Z,4.70
2023-04-20T02:50:28.309Z,4.80
2023-04-20T02:56:42.940Z,5.00
2023-04-20T03:02:46.999Z,5.00
2023-04-20T03:08:49.543Z,4.90
2023-04-20T03:15:10.567Z,5.00
2023-04-20T03:21:40.659Z,5.00
2023-04-20T03:27:42.944Z,5.10
2023-04-20T03:33:48.943Z,5.20
2023-04-20T03:39:53.603Z,5.00
2023-04-20T03:45:55.878Z,4.80
2023-04-20T03:51:58.357Z,5.00
2023-04-20T03:58:00.757Z,5.10
2023-04-20T04:04:12.772Z,4.90
2023-04-20T04:10:19.183Z,5.00
2023-04-20T04:16:23.995Z,5.10
2023-04-20T04:22:26.535Z,5.00
2023-04-20T04:28:55.478Z,5.00
2023-04-20T04:34:59.312Z,5.10
2023-04-20T04:41:01.916Z,5.20
2023-04-20T04:47:05.854Z,5.30
2023-04-20T04:53:08.067Z,5.30
2023-04-20T04:59:10.127Z,5.40
2023-04-20T05:05:12.538Z,5.50
2023-04-20T05:11:14.726Z,5.60
2023-04-20T05:17:16.535Z,5.70
2023-04-20T05:23:19.079Z,5.60
2023-04-20T05:29:20.965Z,5.80
2023-04-20T05:35:22.962Z,5.70
2023-04-20T05:41:27.282Z,5.80
2023-04-20T05:47:29.122Z,5.90
2023-04-20T05:53:31.105Z,6.00
2023-04-20T05:59:32.932Z,6.10
2023-04-20T06:05:34.802Z,6.20
2023-04-20T06:11:36.833Z,6.30
2023-04-20T06:17:44.100Z,6.40
2023-04-20T06:23:46.194Z,6.60
2023-04-20T06:29:47.995Z,6.80
2023-04-20T06:35:51.650Z,7.10
2023-04-20T06:41:53.529Z,7.70
2023-04-20T06:47:57.801Z,8.40
2023-04-20T06:53:59.615Z,9.10
2023-04-20T07:00:03.793Z,9.30
2023-04-20T07:06:07.247Z,9.40
2023-04-20T07:12:09.636Z,8.90
2023-04-20T07:18:11.766Z,8.70
2023-04-20T07:24:13.619Z,8.40
2023-04-20T07:30:15.407Z,8.60
2023-04-20T07:36:17.261Z,8.70
2023-04-20T07:42:19.864Z,8.90
2023-04-20T07:48:21.739Z,8.90
2023-04-20T07:54:23.493Z,9.20
2023-04-20T08:00:25.610Z,9.60
2023-04-20T08:06:28.112Z,9.90
2023-04-20T08:12:32.511Z,9.90
2023-04-20T08:18:34.484Z,10.30
2023-04-20T08:24:36.261Z,10.60
2023-04-20T08:30:40.403Z,10.70
2023-04-20T08:36:42.212Z,11.00
2023-04-20T08:42:44.040Z,11.40
2023-04-20T08:48:48.627Z,11.30
2023-04-20T08:54:56.578Z,11.30
2023-04-20T09:01:01.635Z,11.60
2023-04-20T09:07:06.860Z,11.70
2023-04-20T09:13:09.273Z,11.50
2023-04-20T09:19:13.517Z,11.50
2023-04-20T09:25:19.303Z,11.60
2023-04-20T09:31:22.352Z,11.50
2023-04-20T09:37:24.198Z,11.10
2023-04-20T09:43:27.557Z,10.70
2023-04-20T09:49:30.764Z,10.90
2023-04-20T09:55:33.017Z,11.90
2023-04-20T10:01:36.539Z,12.20
2023-04-20T10:07:38.544Z,12.90
2023-04-20T10:13:40.442Z,13.10
2023-04-20T10:19:43.134Z,13.50
2023-04-20T10:25:55.565Z,13.50
2023-04-20T10:31:57.514Z,13.00
2023-04-20T10:37:59.263Z,11.60
2023-04-20T10:44:07.937Z,11.80
2023-04-20T10:50:10.708Z,12.20
2023-04-20T10:56:12.567Z,12.40
2023-04-20T11:02:14.601Z,12.60
2023-04-20T11:08:16.634Z,12.00
2023-04-20T11:14:18.438Z,12.20
2023-04-20T11:20:20.216Z,12.70
2023-04-20T11:26:24.362Z,13.20
2023-04-20T11:32:26.783Z,13.60
2023-04-20T11:38:32.607Z,14.00
2023-04-20T11:44:36.683Z,13.40
2023-04-20T11:50:41.024Z,13.60
2023-04-20T11:56:44.905Z,13.60
2023-04-20T12:02:46.929Z,13.80
2023-04-20T12:08:49.053Z,13.30
2023-04-20T12:14:50.853Z,13.30
2023-04-20T12:20:52.672Z,13.60
2023-04-20T12:26:54.652Z,13.50
2023-04-20T12:32:56.474Z,13.20
2023-04-20T12:38:58.492Z,13.70
2023-04-20T12:45:00.530Z,13.70
2023-04-20T12:51:02.672Z,14.10
2023-04-20T12:57:04.574Z,14.60
2023-04-20T13:03:06.564Z,14.70
2023-04-20T13:09:08.376Z,14.50
2023-04-20T13:15:11.083Z,14.20
2023-04-20T13:26:56.699Z,12.60
2023-04-20T13:32:58.766Z,12.20
2023-04-20T13:39:01.725Z,12.10
2023-04-20T13:45:04.731Z,12.10
2023-04-20T13:51:06.592Z,11.80
2023-04-20T13:57:08.964Z,11.90
2023-04-20T14:03:10.967Z,12.00
2023-04-20T14:09:12.875Z,12.10
2023-04-20T14:15:14.844Z,11.90
2023-04-20T14:21:16.702Z,11.60
2023-04-20T14:27:18.568Z,11.40
2023-04-20T14:33:20.354Z,11.20
2023-04-20T14:39:23.311Z,11.10
2023-04-20T14:45:25.200Z,10.90
2023-04-20T14:51:28.113Z,10.70
2023-04-20T14:57:29.899Z,10.60
2023-04-20T15:03:31.787Z,10.30
2023-04-20T15:09:35.840Z,10.20
2023-04-20T15:15:47.476Z,10.00
2023-04-20T15:21:50.104Z,10.20
2023-04-20T15:27:52.476Z,10.20
2023-04-20T15:33:54.485Z,10.20
2023-04-20T15:39:56.235Z,10.00
2023-04-20T15:45:58.050Z,9.80
2023-04-20T15:51:59.927Z,9.70
2023-04-20T15:58:01.724Z,9.60
2023-04-20T16:04:03.691Z,9.60
2023-04-20T16:10:06.814Z,9.60
2023-04-20T16:16:08.942Z,9.60
2023-04-20T16:22:11.182Z,9.50
2023-04-20T16:28:13.496Z,9.50
2023-04-20T16:34:15.347Z,9.80
2023-04-20T16:40:18.704Z,10.00
2023-04-20T16:46:22.455Z,10.10
2023-04-20T16:52:24.318Z,10.10
2023-04-20T16:58:26.506Z,9.90
2023-04-20T17:04:28.487Z,9.80
2023-04-20T17:10:30.272Z,9.70
2023-04-20T17:16:32.067Z,9.70
2023-04-20T17:22:35.374Z,9.60
2023-04-20T17:28:37.117Z,9.50
2023-04-20T17:34:40.019Z,9.50
2023-04-20T17:40:41.819Z,9.30
2023-04-20T17:46:43.658Z,9.30
2023-04-20T17:52:45.681Z,9.30
2023-04-20T17:58:48.307Z,9.30
2023-04-20T18:04:50.408Z,9.30
2023-04-20T18:10:52.203Z,9.30
2023-04-20T18:16:55.228Z,9.30
2023-04-20T18:22:57.076Z,9.30
2023-04-20T18:28:58.858Z,9.20
2023-04-20T18:35:00.723Z,9.20
2023-04-20T18:41:02.839Z,9.30
2023-04-20T18:47:04.878Z,9.20
2023-04-20T18:53:06.770Z,9.30
2023-04-20T18:59:10.639Z,9.30
2023-04-20T19:05:13.406Z,9.30
2023-04-20T19:11:15.218Z,9.30
2023-04-20T19:17:17.022Z,9.30
2023-04-20T19:23:18.871Z,9.30
2023-04-20T19:29:20.823Z,9.30
2023-04-20T19:35:22.680Z,9.20
2023-04-20T19:41:25.979Z,9.20
2023-04-20T19:47:27.896Z,9.20
2023-04-20T19:53:33.029Z,9.20
2023-04-20T19:59:37.536Z,9.10
2023-04-20T20:05:39.317Z,9.10
2023-04-20T20:11:47.989Z,9.10
2023-04-20T20:17:50.286Z,9.00
2023-04-20T20:23:52.132Z,8.90
2023-04-20T20:29:54.290Z,8.90
2023-04-20T20:35:56.112Z,8.90
2023-04-20T20:41:58.039Z,8.80
2023-04-20T20:47:59.970Z,8.70
2023-04-20T20:54:01.752Z,8.50
2023-04-20T21:00:09.899Z,8.40
2023-04-20T21:06:11.849Z,8.10
2023-04-20T21:12:13.627Z,7.70
2023-04-20T21:18:15.479Z,7.30
2023-04-20T21:24:17.333Z,7.00
2023-04-20T21:30:19.197Z,6.70
2023-04-20T21:36:21.021Z,6.50
2023-04-20T21:42:22.851Z,6.30
2023-04-20T21:48:24.681Z,6.20
2023-04-20T21:54:26.472Z,6.10
2023-04-20T22:00:28.248Z,6.10
2023-04-20T22:06:32.648Z,6.00
2023-04-20T22:12:40.150Z,5.90
2023-04-20T22:18:42.256Z,5.80
2023-04-20T22:24:44.327Z,5.80
2023-04-20T22:30:46.149Z,5.80
2023-04-20T22:36:47.943Z,5.90
2023-04-20T22:42:50.770Z,5.90
2023-04-20T22:48:52.640Z,6.00
2023-04-20T22:54:54.405Z,6.00
2023-04-20T23:00:56.183Z,6.10
2023-04-20T23:06:58.123Z,6.30
2023-04-20T23:13:00.310Z,6.10
2023-04-20T23:19:02.114Z,6.10
2023-04-20T23:25:04.043Z,5.90
2023-04-20T23:31:05.814Z,5.90
2023-04-20T23:37:07.580Z,5.90
2023-04-20T23:43:09.372Z,6.10
2023-04-20T23:49:11.353Z,6.70
2023-04-20T23:55:14.114Z,7.20
